Latest Weather Observations for Mount Boyce

IDN60901

Issued at 12:21 am EST Thursday 27 June 2019 (issued every 10 minutes, with the page automatically refreshed every 10 minutes)

About weather observations | Map of Sydney area stations | Latest observations for Sydney area | Other Formats
Station Details ID: 063292 Name: MOUNT BOYCE AWS Lat: -33.62 Lon: 150.27 Height: 1080.0 m
Data from the previous 72 hours. | See also: Recent months at Mount Boyce
Date/Time
EST
Temp
°C
App
Temp
°C
Dew
Point
°C
Rel
Hum
%
Delta-T
°C
Wind Press
QNH
hPa
Press
MSL
hPa
Rain since
9am
mm
Dir  Spd
km/h
Gust
km/h
Spd
kts
Gust
kts
27/12:00am 6.2 4.1 5.9 98 0.1 E 6 17 3 9 - - 2.4
 
Date/Time
EST
Temp
°C
App
Temp
°C
Dew
Point
°C
Rel
Hum
%
Delta-T
°C
Wind Press
QNH
hPa
Press
MSL
hPa
Rain since
9am
mm
Dir  Spd
km/h
Gust
km/h
Spd
kts
Gust
kts
26/11:30pm 6.3 4.2 6.0 98 0.1 ENE 6 11 3 6 - - 2.4
26/11:00pm 6.3 4.1 6.0 98 0.1 ENE 7 11 4 6 - - 2.4
26/10:30pm 6.3 3.7 6.0 98 0.1 E 9 17 5 9 - - 2.4
26/10:00pm 6.5 4.5 6.2 98 0.1 E 6 13 3 7 - - 2.4
26/09:30pm 6.4 4.7 6.1 98 0.1 E 4 11 2 6 - - 2.4
26/09:00pm 6.3 4.2 5.9 97 0.2 E 6 11 3 6 - - 2.4
26/08:30pm 6.2 3.9 5.8 97 0.2 ESE 7 19 4 10 - - 2.4
26/08:00pm 6.2 3.5 5.8 97 0.2 E 9 20 5 11 - - 2.4
26/07:30pm 6.3 3.6 5.7 96 0.3 E 9 22 5 12 - - 2.4
26/07:29pm 6.3 3.6 5.7 96 0.3 E 9 22 5 12 - - 2.4
26/07:00pm 6.3 3.2 5.7 96 0.3 E 11 20 6 11 - - 2.4
26/06:34pm 6.6 3.6 6.0 96 0.3 E 11 26 6 14 - - 2.4
26/06:30pm 6.6 3.6 6.0 96 0.3 E 11 20 6 11 - - 2.4
26/06:00pm 6.9 4.3 6.3 96 0.3 E 9 19 5 10 - - 2.4
26/05:59pm 6.9 4.3 6.3 96 0.3 E 9 17 5 9 - - 2.4
26/05:56pm 6.9 4.7 6.3 96 0.3 E 7 17 4 9 - - 2.4
26/05:30pm 7.0 4.4 6.3 95 0.3 E 9 17 5 9 - - 2.4
26/05:00pm 7.2 4.3 6.5 95 0.3 E 11 19 6 10 - - 2.4
26/04:30pm 7.6 5.7 6.7 94 0.4 E 6 11 3 6 - - 2.4
26/04:00pm 8.0 6.5 6.9 93 0.5 E 4 17 2 9 - - 2.4
26/03:30pm 7.7 5.6 6.5 92 0.6 E 7 17 4 9 - - 2.4
26/03:00pm 8.6 6.9 7.7 94 0.5 ENE 6 11 3 6 - - 2.4
26/02:30pm 8.3 6.4 7.7 96 0.3 E 7 15 4 8 - - 2.4
26/02:04pm 7.9 6.0 7.5 97 0.2 E 7 17 4 9 - - 2.4
26/02:00pm 7.9 5.6 7.5 97 0.2 E 9 24 5 13 - - 2.4
26/01:30pm 8.0 6.3 7.6 97 0.2 E 6 13 3 7 - - 2.0
26/01:00pm 7.7 5.7 7.3 97 0.2 E 7 13 4 7 - - 1.6
26/12:30pm 7.5 5.7 7.1 97 0.2 E 6 13 3 7 - - 1.0
26/12:00pm 7.4 5.0 7.0 97 0.2 E 9 17 5 9 - - 0.8
26/11:30am 7.7 5.9 7.3 97 0.2 E 6 19 3 10 - - 0.2
26/11:03am 7.7 6.0 7.4 98 0.1 ESE 6 17 3 9 - - 0.2
26/11:00am 7.9 7.0 7.6 98 0.2 ESE 2 15 1 8 - - 0.2
26/10:39am 7.1 5.0 6.8 98 0.1 ESE 7 13 4 7 - - 0.2
26/10:30am 6.9 4.8 6.6 98 0.1 ESE 7 17 4 9 - - 0.2
26/10:00am 6.6 4.0 6.3 98 0.1 ESE 9 19 5 10 - - 0.2
26/09:51am 6.8 4.9 6.5 98 0.1 E 6 13 3 7 - - 0.0
26/09:45am 6.7 4.5 6.4 98 0.1 ESE 7 15 4 8 - - 0.0
26/09:30am 6.7 4.5 6.4 98 0.1 E 7 15 4 8 - - 0.0
26/09:23am 6.6 5.0 6.3 98 0.1 E 4 15 2 8 - - 0.0
26/09:14am 6.8 5.2 6.5 98 0.1 E 4 11 2 6 - - 0.0
26/09:00am 6.6 4.4 6.3 98 0.1 ESE 7 13 4 7 - - 4.8
26/08:30am 6.2 3.6 5.9 98 0.1 ESE 9 19 5 10 - - 4.8
26/08:00am 6.1 3.8 5.8 98 0.1 E 7 15 4 8 - - 4.8
26/07:30am 6.0 3.3 5.7 98 0.1 E 9 15 5 8 - - 4.6
26/07:00am 5.9 3.2 5.6 98 0.1 E 9 17 5 9 - - 4.4
26/06:30am 5.8 3.1 5.5 98 0.1 E 9 15 5 8 - - 4.4
26/06:00am 5.9 3.2 5.6 98 0.1 E 9 19 5 10 - - 4.0
26/05:30am 6.1 3.4 5.8 98 0.1 ESE 9 15 5 8 - - 4.0
26/05:00am 6.2 3.9 5.9 98 0.1 E 7 13 4 7 - - 4.0
26/04:30am 6.1 3.4 5.8 98 0.1 ESE 9 17 5 9 - - 3.8
26/04:00am 6.1 3.1 5.8 98 0.1 ESE 11 22 6 12 - - 3.6
26/03:30am 6.2 3.9 5.9 98 0.1 E 7 15 4 8 - - 3.0
26/03:00am 6.2 3.6 5.9 98 0.1 E 9 20 5 11 - - 2.6
26/02:30am 6.2 3.6 5.9 98 0.1 ESE 9 15 5 8 - - 2.2
26/02:00am 6.2 3.6 5.9 98 0.1 E 9 19 5 10 - - 2.0
26/01:30am 6.4 3.8 6.1 98 0.1 ESE 9 22 5 12 - - 2.0
26/01:00am 6.4 3.8 6.1 98 0.1 ESE 9 22 5 12 - - 1.8
26/12:30am 6.4 3.8 6.1 98 0.1 ESE 9 15 5 8 - - 1.8
26/12:00am 6.4 3.4 6.1 98 0.1 ESE 11 24 6 13 - - 1.6
 
Date/Time
EST
Temp
°C
App
Temp
°C
Dew
Point
°C
Rel
Hum
%
Delta-T
°C
Wind Press
QNH
hPa
Press
MSL
hPa
Rain since
9am
mm
Dir  Spd
km/h
Gust
km/h
Spd
kts
Gust
kts
25/11:30pm 6.5 3.9 6.2 98 0.1 E 9 17 5 9 - - 1.2
25/11:00pm 6.4 3.8 6.1 98 0.1 E 9 17 5 9 - - 1.0
25/10:30pm 6.6 3.7 6.3 98 0.1 ESE 11 17 6 9 - - 1.0
25/10:00pm 6.5 3.9 6.2 98 0.1 ESE 9 19 5 10 - - 0.8
25/09:30pm 6.5 3.9 6.1 97 0.2 ESE 9 19 5 10 - - 0.8
25/09:00pm 6.5 3.9 6.1 97 0.2 ESE 9 15 5 8 - - 0.6
25/08:30pm 6.4 3.0 6.0 97 0.2 ESE 13 20 7 11 - - 0.6
25/08:00pm 6.3 3.3 5.9 97 0.2 ESE 11 22 6 12 - - 0.6
25/07:30pm 6.4 4.2 6.0 97 0.2 ESE 7 17 4 9 - - 0.2
25/07:00pm 6.6 4.0 6.0 96 0.3 ESE 9 20 5 11 - - 0.2
25/06:30pm 6.8 4.2 6.2 96 0.3 ESE 9 20 5 11 - - 0.2
25/06:00pm 7.0 5.4 6.3 95 0.3 ESE 4 15 2 8 - - 0.0
25/05:46pm 6.9 4.7 6.0 94 0.4 SSE 7 11 4 6 - - 0.0
25/05:30pm 7.0 5.3 5.9 93 0.5 ESE 4 9 2 5 - - 0.0
25/05:00pm 7.3 5.3 6.1 92 0.6 ESE 6 11 3 6 - - 0.0
25/04:30pm 7.5 6.2 6.0 90 0.7 ESE 2 9 1 5 - - 0.0
25/04:00pm 8.1 6.1 6.2 88 0.9 ESE 6 11 3 6 - - 0.0
25/03:30pm 8.6 6.7 6.9 89 0.8 E 6 13 3 7 - - 0.0
25/03:00pm 8.4 6.4 6.2 86 1.1 E 6 11 3 6 - - 0.0
25/02:30pm 8.5 6.9 6.3 86 1.1 ENE 4 13 2 7 - - 0.0
25/02:24pm 8.6 6.6 6.1 84 1.2 ENE 6 11 3 6 - - 0.0
25/02:00pm 9.1 6.8 5.7 79 1.7 E 7 17 4 9 - - 0.0
25/01:30pm 8.6 6.1 6.7 88 0.9 E 9 17 5 9 - - 0.0
25/01:00pm 8.5 6.6 6.5 87 1.0 E 6 13 3 7 - - 0.0
25/12:45pm 8.4 6.2 6.0 85 1.2 E 7 11 4 6 - - 0.0
25/12:30pm 9.0 6.6 7.0 87 1.0 E 9 17 5 9 - - 0.0
25/12:00pm 9.1 7.6 6.9 86 1.1 ESE 4 9 2 5 - - 0.0
25/11:30am 7.8 5.4 6.9 94 0.4 E 9 17 5 9 - - 0.0
25/11:00am 7.2 5.0 6.3 94 0.4 ESE 7 15 4 8 - - 0.0
25/10:30am 7.4 5.4 7.0 97 0.2 E 7 17 4 9 - - 0.0
25/10:16am 7.1 5.0 6.8 98 0.1 ESE 7 17 4 9 - - 0.0
25/10:00am 6.7 4.5 6.4 98 0.1 ESE 7 19 4 10 - - 0.0
25/09:30am 6.7 3.8 6.4 98 0.1 E 11 20 6 11 - - 0.0
25/09:00am 6.7 4.2 6.4 98 0.1 E 9 17 5 9 - - 9.2
25/08:30am 6.4 3.4 6.1 98 0.1 E 11 20 6 11 - - 9.2
25/08:00am 6.2 3.6 5.9 98 0.1 E 9 22 5 12 - - 9.0
25/07:30am 6.1 3.1 5.8 98 0.1 E 11 20 6 11 - - 8.8
25/07:00am 6.1 3.4 5.8 98 0.1 E 9 17 5 9 - - 8.2
25/06:30am 6.1 3.8 5.8 98 0.1 E 7 17 4 9 - - 7.6
25/06:00am 5.9 3.2 5.6 98 0.1 ESE 9 19 5 10 - - 7.2
25/05:30am 5.9 3.6 5.6 98 0.1 SE 7 13 4 7 - - 7.0
25/05:00am 5.9 3.2 5.6 98 0.1 SE 9 17 5 9 - - 6.6
25/04:30am 5.9 3.2 5.6 98 0.1 SE 9 17 5 9 - - 6.4
25/04:00am 5.8 3.6 5.5 98 0.1 SSE 6 15 3 8 - - 6.2
25/03:30am 5.8 4.4 5.5 98 0.1 S 2 9 1 5 - - 6.2
25/03:00am 5.8 3.5 5.5 98 0.1 SSE 7 19 4 10 - - 5.8
25/02:30am 5.9 3.2 5.6 98 0.1 ESE 9 15 5 8 - - 5.4
25/02:00am 5.9 3.6 5.6 98 0.1 ESE 7 15 4 8 - - 5.4
25/01:30am 5.8 3.4 5.4 97 0.2 ESE 7 15 4 8 - - 4.6
25/01:00am 5.8 3.5 5.5 98 0.1 SE 7 13 4 7 - - 3.6
25/12:30am 5.9 3.8 5.6 98 0.1 S 6 15 3 8 - - 2.8
25/12:00am 5.9 3.6 5.6 98 0.1 SSE 7 13 4 7 - - 2.6
 
Date/Time
EST
Temp
°C
App
Temp
°C
Dew
Point
°C
Rel
Hum
%
Delta-T
°C
Wind Press
QNH
hPa
Press
MSL
hPa
Rain since
9am
mm
Dir  Spd
km/h
Gust
km/h
Spd
kts
Gust
kts
24/11:30pm 5.9 3.2 5.5 97 0.2 SSE 9 15 5 8 - - 2.4
24/11:00pm 5.8 3.4 5.4 97 0.2 SE 7 15 4 8 - - 2.4
24/10:36pm 5.8 2.7 5.4 97 0.2 SE 11 22 6 12 - - 2.4
24/10:30pm 5.7 2.9 5.3 97 0.2 ESE 9 22 5 12 - - 2.4
24/10:00pm 5.7 2.5 5.3 97 0.2 ESE 11 20 6 11 - - 2.4
24/09:45pm 5.6 2.8 5.2 97 0.2 E 9 20 5 11 - - 2.4
24/09:30pm 5.5 2.7 5.1 97 0.2 ESE 9 24 5 13 - - 2.4
24/09:00pm 5.4 2.2 5.0 97 0.2 ESE 11 20 6 11 - - 2.4
24/08:46pm 5.4 1.8 5.0 97 0.2 ESE 13 26 7 14 - - 2.4
24/08:30pm 5.5 2.3 5.1 97 0.2 ESE 11 24 6 13 - - 2.4
24/08:26pm 5.5 2.7 5.1 97 0.2 ESE 9 22 5 12 - - 2.4
24/08:00pm 5.5 1.9 5.1 97 0.2 ESE 13 24 7 13 - - 2.4
24/07:40pm 5.4 2.2 5.0 97 0.2 ESE 11 30 6 16 - - 2.4
24/07:30pm 5.4 1.8 5.0 97 0.2 ESE 13 28 7 15 - - 2.4
24/07:21pm 5.4 1.8 5.0 97 0.2 ESE 13 20 7 11 - - 2.4
24/07:00pm 5.3 1.6 4.7 96 0.3 ESE 13 28 7 15 - - 2.4
24/06:30pm 5.4 1.8 4.8 96 0.3 ESE 13 26 7 14 - - 2.4
24/06:00pm 5.5 1.9 4.9 96 0.3 ESE 13 24 7 13 - - 2.4
24/05:30pm 5.4 2.1 4.8 96 0.3 ESE 11 24 6 13 - - 2.0
24/05:06pm 5.5 2.6 4.8 95 0.3 ESE 9 17 5 9 - - 2.0
24/05:00pm 5.5 1.9 4.9 96 0.3 ESE 13 32 7 17 - - 2.0
24/04:30pm 5.9 2.7 5.3 96 0.3 E 11 20 6 11 - - 1.8
24/04:00pm 5.9 2.7 5.2 95 0.3 E 11 20 6 11 - - 1.2
24/03:30pm 6.1 1.8 5.1 93 0.5 ESE 17 32 9 17 - - 1.0
24/03:00pm 7.5 4.5 6.0 90 0.7 E 11 22 6 12 - - 0.6
24/02:56pm 7.8 4.8 5.9 88 0.9 E 11 22 6 12 - - 0.2
24/02:30pm 7.5 4.1 6.0 90 0.7 E 13 28 7 15 - - 0.2
24/02:12pm 6.9 3.4 5.5 91 0.7 ESE 13 26 7 14 - - 0.2
24/02:00pm 6.9 2.6 5.1 88 0.8 ESE 17 35 9 19 - - 0.2
24/01:54pm 7.7 4.5 5.2 84 1.2 ESE 11 32 6 17 - - 0.2
24/01:41pm 9.5 6.9 5.9 78 1.8 E 9 20 5 11 - - 0.0
24/01:30pm 7.7 3.9 3.9 77 1.8 ESE 13 22 7 12 - - 0.0
24/01:00pm 9.0 5.9 5.6 79 1.6 E 11 22 6 12 - - 0.0
24/12:30pm 7.7 4.5 5.0 83 1.3 SE 11 24 6 13 - - 0.0
24/12:00pm 6.6 3.4 4.9 89 0.8 ESE 11 24 6 13 - - 0.0
24/11:30am 6.1 2.6 5.4 95 0.3 SE 13 26 7 14 - - 0.0
24/11:04am 6.0 2.2 5.7 98 0.1 SE 15 26 8 14 - - 0.0
24/11:00am 5.6 1.3 5.3 98 0.1 SE 17 32 9 17 - - 0.0
24/10:30am 5.5 1.2 5.2 98 0.1 SE 17 32 9 17 - - 0.0
24/10:00am 5.5 1.6 5.2 98 0.1 SE 15 28 8 15 - - 0.0
24/09:30am 5.1 1.5 4.8 98 0.1 SE 13 24 7 13 - - 0.0
24/09:00am 4.7 1.0 4.4 98 0.1 SE 13 26 7 14 - - 7.4
24/08:30am 4.7 1.0 4.4 98 0.1 SE 13 24 7 13 - - 7.4
24/08:00am 4.4 1.0 4.1 98 0.1 ESE 11 24 6 13 - - 7.4
24/07:30am 4.3 0.5 4.0 98 0.1 SE 13 30 7 16 - - 7.4
24/07:00am 4.2 0.4 3.9 98 0.1 SE 13 20 7 11 - - 7.2
24/06:30am 4.2 0.4 3.9 98 0.1 SE 13 24 7 13 - - 7.2
24/06:00am 4.1 0.7 3.8 98 0.1 SE 11 20 6 11 - - 6.6
24/05:30am 4.1 -0.1 3.8 98 0.1 SE 15 32 8 17 - - 6.6
24/05:00am 4.0 0.1 3.6 97 0.2 SSE 13 26 7 14 - - 6.6
24/04:30am 3.9 0.0 3.5 97 0.2 SE 13 22 7 12 - - 6.4
24/04:00am 3.8 -0.5 3.4 97 0.2 SE 15 30 8 16 - - 6.2
24/03:30am 3.8 -0.1 3.4 97 0.2 ESE 13 24 7 13 - - 6.2
24/03:28am 3.8 -0.1 3.4 97 0.2 ESE 13 28 7 15 - - 6.2
24/03:26am 3.8 -0.5 3.4 97 0.2 SE 15 28 8 15 - - 6.2
24/03:00am 3.8 -0.9 3.4 97 0.2 SE 17 32 9 17 - - 6.2
24/02:49am 3.8 -0.1 3.4 97 0.2 SSE 13 30 7 16 - - 6.2
24/02:33am 3.7 -1.0 3.3 97 0.2 SE 17 32 9 17 - - 6.2
24/02:30am 3.7 -0.6 3.3 97 0.2 SE 15 26 8 14 - - 6.2
24/02:00am 3.6 0.0 3.2 97 0.2 S 11 20 6 11 - - 6.2
24/01:57am 3.6 0.0 3.2 97 0.2 S 11 19 6 10 - - 6.2
24/01:48am 3.6 0.0 3.0 96 0.3 SSE 11 20 6 11 - - 6.2
24/01:30am 3.6 0.4 3.0 96 0.3 SE 9 17 5 9 - - 5.8
24/01:00am 3.6 0.0 3.0 96 0.3 ESE 11 19 6 10 - - 4.0
24/12:31am 3.5 -0.5 2.9 96 0.3 ESE 13 22 7 12 - - 2.2
24/12:30am 3.5 -0.5 2.9 96 0.3 ESE 13 24 7 13 - - 2.2

Latest Capital City Observations: Canberra | Sydney | Melbourne | Brisbane | Adelaide | Perth | Hobart | Darwin

Other formats

Comma delimited format used in spreadsheet applications
http://www.bom.gov.au/fwo/IDN60901/IDN60901.94743.axf

JavaScript Object Notation format (JSON) in row-major order
http://www.bom.gov.au/fwo/IDN60901/IDN60901.94743.json

Data quality

Most of these data are generated automatically and are frequently updated. Quality checks on data are not normally performed. It is possible for incorrect values to appear. Refer to information at About Latest Weather Observations and please check the disclaimer before using these data.